createdAt,value
2022-08-26T00:01:37.683Z,17.50
2022-08-26T00:04:04.531Z,15.60
2022-08-26T00:06:33.401Z,18.43
2022-08-26T00:09:00.206Z,16.50
2022-08-26T00:11:27.263Z,16.40
2022-08-26T00:13:56.003Z,17.70
2022-08-26T00:16:24.534Z,15.77
2022-08-26T00:18:51.103Z,15.53
2022-08-26T00:21:17.739Z,15.73
2022-08-26T00:23:44.615Z,12.00
2022-08-26T00:26:11.458Z,14.57
2022-08-26T00:28:39.481Z,14.97
2022-08-26T00:31:07.169Z,13.80
2022-08-26T00:33:34.096Z,16.73
2022-08-26T00:36:01.651Z,14.83
2022-08-26T00:38:29.049Z,16.10
2022-08-26T00:40:57.092Z,14.20
2022-08-26T00:43:24.978Z,17.20
2022-08-26T00:46:11.009Z,16.33
2022-08-26T00:48:42.404Z,14.10
2022-08-26T00:51:16.820Z,15.03
2022-08-26T00:53:55.087Z,18.83
2022-08-26T00:56:30.973Z,17.90
2022-08-26T00:59:01.025Z,17.43
2022-08-26T01:01:28.363Z,16.17
2022-08-26T01:03:58.007Z,21.27
2022-08-26T01:06:25.053Z,16.77
2022-08-26T01:08:52.524Z,13.97
2022-08-26T01:11:19.936Z,15.97
2022-08-26T01:13:48.219Z,14.87
2022-08-26T01:16:16.392Z,15.47
2022-08-26T01:18:44.817Z,14.80
2022-08-26T01:21:36.295Z,17.37
2022-08-26T01:24:07.983Z,19.93
2022-08-26T01:26:43.182Z,28.47
2022-08-26T01:29:15.575Z,16.97
2022-08-26T01:31:49.613Z,19.33
2022-08-26T01:34:20.416Z,17.47
2022-08-26T01:36:51.424Z,18.63
2022-08-26T01:39:18.544Z,17.87
2022-08-26T01:41:46.251Z,16.67
2022-08-26T01:44:18.840Z,16.00
2022-08-26T01:46:48.860Z,14.60
2022-08-26T01:49:18.040Z,18.90
2022-08-26T01:51:46.452Z,17.50
2022-08-26T01:54:14.055Z,15.67
2022-08-26T01:56:41.419Z,17.60
2022-08-26T01:59:12.250Z,17.50
2022-08-26T02:01:39.246Z,14.73
2022-08-26T02:04:17.630Z,16.90
2022-08-26T02:06:45.031Z,17.80
2022-08-26T02:09:12.240Z,14.00
2022-08-26T02:11:39.332Z,16.20
2022-08-26T02:14:11.696Z,15.73
2022-08-26T02:16:42.281Z,16.90
2022-08-26T02:19:17.209Z,16.03
2022-08-26T02:21:46.438Z,17.93
2022-08-26T02:24:24.594Z,16.47
2022-08-26T02:26:54.138Z,22.27
2022-08-26T02:29:35.077Z,17.97
2022-08-26T02:32:02.803Z,23.93
2022-08-26T02:34:32.270Z,24.37
2022-08-26T02:37:11.163Z,21.30
2022-08-26T02:39:40.021Z,27.40
2022-08-26T02:42:07.075Z,30.33
2022-08-26T02:44:33.767Z,24.93
2022-08-26T02:47:01.178Z,20.90
2022-08-26T02:49:30.367Z,22.47
2022-08-26T02:51:57.118Z,20.83
2022-08-26T02:54:23.598Z,25.50
2022-08-26T02:56:51.326Z,21.50
2022-08-26T02:59:17.918Z,30.13
2022-08-26T03:01:45.215Z,24.70
2022-08-26T03:04:13.133Z,23.00
2022-08-26T03:06:42.179Z,31.03
2022-08-26T03:09:09.130Z,31.87
2022-08-26T03:11:36.717Z,31.07
2022-08-26T03:14:04.571Z,35.47
2022-08-26T03:16:33.246Z,34.57
2022-08-26T03:19:00.897Z,40.40
2022-08-26T03:21:27.356Z,35.03
2022-08-26T03:23:53.828Z,35.63
2022-08-26T03:26:20.349Z,42.23
2022-08-26T03:29:06.281Z,36.70
2022-08-26T03:31:33.048Z,40.17
2022-08-26T03:34:00.048Z,38.23
2022-08-26T03:36:27.199Z,42.10
2022-08-26T03:38:54.365Z,42.90
2022-08-26T03:41:21.367Z,42.43
2022-08-26T03:43:50.709Z,40.97
2022-08-26T03:46:18.651Z,38.87
2022-08-26T03:48:45.695Z,43.80
2022-08-26T03:51:14.512Z,39.37
2022-08-26T03:53:45.702Z,51.90
2022-08-26T03:56:12.814Z,41.43
2022-08-26T03:58:39.407Z,43.37
2022-08-26T04:01:09.894Z,44.30
2022-08-26T04:03:54.931Z,40.10
2022-08-26T04:06:21.712Z,40.97
2022-08-26T04:08:48.366Z,41.53
2022-08-26T04:11:20.406Z,52.97
2022-08-26T04:13:47.992Z,48.50
2022-08-26T04:16:17.488Z,52.53
2022-08-26T04:18:46.779Z,49.03
2022-08-26T04:21:15.341Z,49.33
2022-08-26T04:23:47.504Z,56.30
2022-08-26T04:26:15.170Z,51.13
2022-08-26T04:28:41.854Z,49.97
2022-08-26T04:31:12.395Z,48.70
2022-08-26T04:33:41.863Z,55.97
2022-08-26T04:36:09.084Z,45.57
2022-08-26T04:38:35.696Z,47.90
2022-08-26T04:41:03.311Z,51.37
2022-08-26T04:43:32.187Z,47.37
2022-08-26T04:46:01.223Z,51.70
2022-08-26T04:48:32.095Z,48.90
2022-08-26T04:50:59.947Z,46.80
2022-08-26T04:53:28.236Z,47.67
2022-08-26T04:55:55.418Z,47.43
2022-08-26T04:58:23.528Z,46.20
2022-08-26T05:00:52.061Z,50.77
2022-08-26T05:03:19.285Z,48.07
2022-08-26T05:05:47.788Z,46.40
2022-08-26T05:08:15.288Z,42.13
2022-08-26T05:10:43.725Z,46.03
2022-08-26T05:13:12.684Z,42.73
2022-08-26T05:15:42.283Z,44.63
2022-08-26T05:18:08.862Z,43.80
2022-08-26T05:20:46.384Z,40.80
2022-08-26T05:23:14.847Z,44.33
2022-08-26T05:25:45.738Z,40.37
2022-08-26T05:28:14.878Z,38.10
2022-08-26T05:30:42.541Z,39.27
2022-08-26T05:33:12.024Z,36.37
2022-08-26T05:35:39.167Z,47.23
2022-08-26T05:38:12.720Z,39.60
2022-08-26T05:40:43.117Z,34.53
2022-08-26T05:43:13.312Z,40.93
2022-08-26T05:45:46.091Z,37.13
2022-08-26T05:48:14.630Z,40.17
2022-08-26T05:50:44.484Z,41.93
2022-08-26T05:53:13.165Z,43.10
2022-08-26T05:55:48.077Z,43.20
2022-08-26T05:58:14.876Z,35.80
2022-08-26T06:00:45.115Z,37.43
2022-08-26T06:03:11.754Z,36.57
2022-08-26T06:05:39.476Z,35.83
2022-08-26T06:08:13.834Z,38.40
2022-08-26T06:10:44.984Z,34.73
2022-08-26T06:13:13.282Z,32.53
2022-08-26T06:15:42.975Z,32.07
2022-08-26T06:18:11.190Z,37.20
2022-08-26T06:20:43.532Z,34.10
2022-08-26T06:23:40.456Z,31.90
2022-08-26T06:26:07.558Z,38.40
2022-08-26T06:28:37.712Z,38.77
2022-08-26T06:31:04.506Z,39.37
2022-08-26T06:33:31.205Z,39.53
2022-08-26T06:35:58.411Z,38.60
2022-08-26T06:38:25.453Z,33.40
2022-08-26T06:40:55.058Z,37.40
2022-08-26T06:43:24.860Z,44.73
2022-08-26T06:45:52.166Z,34.87
2022-08-26T06:48:20.422Z,35.27
2022-08-26T06:50:47.968Z,35.10
2022-08-26T06:53:17.083Z,37.50
2022-08-26T06:55:46.113Z,45.63
2022-08-26T06:58:14.159Z,34.50
2022-08-26T07:00:47.138Z,36.70
2022-08-26T07:03:14.086Z,33.30
2022-08-26T07:05:40.752Z,38.60
2022-08-26T07:08:07.242Z,33.13
2022-08-26T07:10:35.556Z,37.30
2022-08-26T07:13:02.707Z,31.70
2022-08-26T07:15:31.466Z,49.37
2022-08-26T07:17:58.186Z,62.93
2022-08-26T07:20:24.735Z,46.63
2022-08-26T07:22:51.603Z,43.60
2022-08-26T07:25:19.317Z,45.60
2022-08-26T07:27:46.848Z,52.80
2022-08-26T07:30:20.853Z,47.03
2022-08-26T07:32:47.455Z,52.30
2022-08-26T07:35:14.759Z,54.40
2022-08-26T07:37:42.331Z,53.73
2022-08-26T07:40:10.096Z,56.93
2022-08-26T07:42:36.652Z,52.37
2022-08-26T07:45:04.177Z,57.60
2022-08-26T07:47:30.621Z,74.60
2022-08-26T07:49:57.790Z,78.80
2022-08-26T07:52:27.525Z,74.90
2022-08-26T07:54:55.938Z,88.33
2022-08-26T07:57:22.459Z,73.30
2022-08-26T07:59:50.960Z,75.50
2022-08-26T08:02:17.443Z,87.87
2022-08-26T08:04:44.029Z,85.93
2022-08-26T08:07:11.582Z,95.60
2022-08-26T08:09:38.502Z,94.37
2022-08-26T08:12:07.770Z,86.13
2022-08-26T08:14:36.475Z,70.33
2022-08-26T08:17:04.448Z,73.87
2022-08-26T08:19:36.811Z,78.87
2022-08-26T08:22:16.969Z,80.17
2022-08-26T08:24:44.594Z,84.13
2022-08-26T08:27:11.251Z,85.20
2022-08-26T08:29:38.623Z,81.57
2022-08-26T08:32:05.583Z,65.00
2022-08-26T08:34:37.947Z,58.50
2022-08-26T08:37:08.662Z,63.50
2022-08-26T08:39:37.045Z,59.67
2022-08-26T08:42:16.777Z,52.50
2022-08-26T08:44:52.118Z,54.97
2022-08-26T08:47:36.457Z,53.93
2022-08-26T08:50:52.301Z,57.17
2022-08-26T08:53:41.594Z,45.17
2022-08-26T08:56:15.662Z,40.50
2022-08-26T08:59:05.879Z,46.20
2022-08-26T09:01:52.247Z,44.40
2022-08-26T09:04:42.311Z,46.60
2022-08-26T09:07:13.427Z,46.27
2022-08-26T09:09:46.063Z,49.00
2022-08-26T09:12:29.353Z,63.27
2022-08-26T09:15:07.997Z,66.90
2022-08-26T09:18:04.561Z,65.57
2022-08-26T09:20:35.463Z,63.83
2022-08-26T09:23:03.678Z,56.57
2022-08-26T09:25:30.175Z,64.37
2022-08-26T09:27:57.791Z,66.73
2022-08-26T09:30:35.243Z,59.97
2022-08-26T09:33:01.758Z,58.83
2022-08-26T09:35:31.904Z,52.07
2022-08-26T09:37:59.002Z,50.77
2022-08-26T09:40:29.125Z,43.77
2022-08-26T09:43:22.182Z,42.23
2022-08-26T09:45:59.394Z,44.50
2022-08-26T09:48:30.446Z,37.80
2022-08-26T09:51:01.375Z,39.73
2022-08-26T09:53:33.136Z,31.60
2022-08-26T09:56:18.017Z,32.30
2022-08-26T09:58:47.306Z,29.77
2022-08-26T10:01:30.099Z,24.13
2022-08-26T10:04:31.120Z,19.50
2022-08-26T10:07:01.375Z,21.50
2022-08-26T10:09:33.204Z,15.93
2022-08-26T10:12:06.779Z,24.80
2022-08-26T10:14:39.824Z,18.97
2022-08-26T10:17:11.007Z,18.87
2022-08-26T10:19:56.640Z,26.57
2022-08-26T10:22:38.660Z,21.10
2022-08-26T10:25:09.878Z,22.87
2022-08-26T10:27:50.989Z,23.60
2022-08-26T10:30:22.288Z,31.00
2022-08-26T10:32:50.748Z,46.40
2022-08-26T10:35:19.260Z,40.43
2022-08-26T10:37:48.310Z,32.30
2022-08-26T10:40:18.355Z,37.03
2022-08-26T10:43:11.123Z,48.13
2022-08-26T10:45:44.148Z,33.03
2022-08-26T10:48:20.512Z,32.23
2022-08-26T10:50:48.042Z,28.77
2022-08-26T10:53:25.340Z,24.63
2022-08-26T10:56:19.234Z,25.13
2022-08-26T10:58:51.189Z,16.77
2022-08-26T11:01:45.724Z,21.93
2022-08-26T11:04:51.405Z,20.40
2022-08-26T11:07:44.275Z,28.43
2022-08-26T11:10:17.265Z,24.30
2022-08-26T11:12:45.335Z,23.03
2022-08-26T11:15:24.879Z,22.03
2022-08-26T11:17:51.441Z,20.70
2022-08-26T11:20:31.064Z,21.30
2022-08-26T11:23:23.044Z,20.80
2022-08-26T11:25:56.012Z,24.93
2022-08-26T11:28:34.309Z,31.20
2022-08-26T11:31:01.712Z,31.80
2022-08-26T11:33:43.851Z,37.17
2022-08-26T11:36:12.345Z,34.90
2022-08-26T11:38:42.811Z,35.87
2022-08-26T11:41:17.289Z,46.13
2022-08-26T11:43:45.299Z,32.37
2022-08-26T11:46:13.382Z,30.93
2022-08-26T11:48:43.240Z,30.83
2022-08-26T11:51:22.887Z,29.40
2022-08-26T11:53:49.703Z,29.37
2022-08-26T11:56:31.816Z,35.27
2022-08-26T11:59:01.044Z,33.80
2022-08-26T12:01:31.200Z,26.53
2022-08-26T12:03:59.686Z,38.67
2022-08-26T12:06:37.438Z,26.30
2022-08-26T12:09:20.555Z,26.07
2022-08-26T12:11:47.188Z,24.10
2022-08-26T12:14:24.249Z,23.17
2022-08-26T12:16:51.865Z,22.33
2022-08-26T12:19:33.404Z,21.37
2022-08-26T12:22:18.806Z,19.73
2022-08-26T12:24:59.616Z,23.47
2022-08-26T12:27:29.682Z,18.90
2022-08-26T12:30:19.297Z,13.33
2022-08-26T12:32:57.365Z,16.43
2022-08-26T12:35:25.407Z,19.70
2022-08-26T12:37:53.834Z,20.00
2022-08-26T12:40:43.164Z,19.37
2022-08-26T12:43:11.814Z,19.27
2022-08-26T12:45:45.419Z,16.10
2022-08-26T12:48:24.550Z,18.80
2022-08-26T12:50:52.140Z,24.33
2022-08-26T12:53:33.405Z,21.73
2022-08-26T12:56:17.468Z,18.97
2022-08-26T12:58:44.387Z,16.00
2022-08-26T13:01:10.938Z,12.63
2022-08-26T13:03:45.616Z,13.43
2022-08-26T13:06:16.324Z,13.10
2022-08-26T13:08:48.101Z,13.83
2022-08-26T13:11:42.848Z,13.53
2022-08-26T13:14:18.397Z,15.13
2022-08-26T13:16:51.271Z,14.40
2022-08-26T13:19:23.504Z,13.83
2022-08-26T13:21:53.844Z,14.63
2022-08-26T13:24:25.982Z,13.70
2022-08-26T13:26:52.691Z,15.47
2022-08-26T13:29:19.517Z,13.90
2022-08-26T13:31:47.336Z,15.57
2022-08-26T13:34:19.097Z,16.13
2022-08-26T13:36:47.161Z,14.20
2022-08-26T13:39:14.046Z,13.03
2022-08-26T13:41:40.997Z,13.70
2022-08-26T13:44:07.479Z,13.03
2022-08-26T13:46:34.157Z,14.53
2022-08-26T13:49:00.856Z,14.13
2022-08-26T13:51:27.985Z,16.40
2022-08-26T13:53:54.714Z,15.33
2022-08-26T13:56:22.827Z,13.60
2022-08-26T13:58:49.631Z,16.50
2022-08-26T14:01:16.981Z,15.07
2022-08-26T14:03:44.020Z,17.30
2022-08-26T14:06:10.712Z,13.27
2022-08-26T14:08:38.700Z,16.47
2022-08-26T14:11:05.663Z,11.60
2022-08-26T14:13:32.189Z,13.47
2022-08-26T14:16:01.327Z,13.60
2022-08-26T14:18:36.349Z,12.33
2022-08-26T14:21:07.367Z,13.17
2022-08-26T14:23:34.279Z,19.00
2022-08-26T14:26:03.607Z,16.10
2022-08-26T14:28:30.154Z,23.73
2022-08-26T14:30:58.132Z,11.27
2022-08-26T14:33:28.803Z,15.70
2022-08-26T14:36:17.851Z,14.80
2022-08-26T14:38:45.847Z,14.60
2022-08-26T14:41:13.919Z,16.23
2022-08-26T14:43:45.768Z,18.93
2022-08-26T14:46:14.362Z,15.17
2022-08-26T14:48:41.055Z,13.77
2022-08-26T14:51:07.760Z,12.70
2022-08-26T14:53:52.865Z,14.17
2022-08-26T14:56:19.533Z,12.63
2022-08-26T14:58:46.844Z,17.80
2022-08-26T15:01:13.378Z,13.23
2022-08-26T15:03:39.846Z,16.40
2022-08-26T15:06:06.559Z,17.90
2022-08-26T15:08:36.508Z,21.13
2022-08-26T15:11:03.829Z,13.77
2022-08-26T15:13:30.664Z,15.87
2022-08-26T15:15:57.262Z,18.23
2022-08-26T15:18:23.902Z,13.17
2022-08-26T15:20:50.348Z,18.47
2022-08-26T15:23:16.814Z,14.03
2022-08-26T15:25:44.935Z,12.10
2022-08-26T15:28:11.860Z,12.53
2022-08-26T15:30:38.549Z,18.63
2022-08-26T15:33:05.047Z,17.00
2022-08-26T15:35:33.055Z,19.37
2022-08-26T15:38:04.868Z,18.70
2022-08-26T15:40:31.365Z,11.30
2022-08-26T15:43:17.776Z,12.40
2022-08-26T15:45:44.507Z,11.40
2022-08-26T15:48:11.051Z,16.93
2022-08-26T15:50:49.984Z,13.70
2022-08-26T15:53:16.494Z,16.97
2022-08-26T15:55:43.053Z,13.53
2022-08-26T15:58:10.396Z,14.37
2022-08-26T16:00:37.568Z,13.47
2022-08-26T16:03:04.100Z,15.37
2022-08-26T16:05:30.594Z,15.00
2022-08-26T16:07:57.714Z,25.23
2022-08-26T16:10:24.357Z,16.43
2022-08-26T16:12:50.809Z,11.43
2022-08-26T16:15:17.310Z,14.33
2022-08-26T16:17:44.112Z,19.30
2022-08-26T16:20:10.842Z,12.40
2022-08-26T16:22:37.375Z,10.80
2022-08-26T16:25:04.100Z,13.97
2022-08-26T16:27:32.363Z,13.17
2022-08-26T16:29:58.800Z,11.60
2022-08-26T16:32:28.279Z,13.67
2022-08-26T16:34:57.807Z,18.80
2022-08-26T16:37:24.411Z,13.00
2022-08-26T16:39:50.955Z,11.57
2022-08-26T16:42:17.442Z,17.30
2022-08-26T16:44:46.995Z,13.17
2022-08-26T16:47:15.518Z,23.40
2022-08-26T16:49:42.309Z,13.10
2022-08-26T16:52:10.533Z,13.40
2022-08-26T16:54:39.721Z,14.33
2022-08-26T16:57:07.970Z,12.70
2022-08-26T16:59:34.923Z,13.93
2022-08-26T17:02:02.189Z,16.93
2022-08-26T17:04:29.448Z,17.50
2022-08-26T17:06:56.580Z,14.07
2022-08-26T17:09:23.062Z,10.13
2022-08-26T17:11:50.267Z,12.43
2022-08-26T17:14:16.854Z,12.20
2022-08-26T17:16:44.494Z,15.10
2022-08-26T17:19:11.073Z,12.93
2022-08-26T17:21:39.086Z,12.77
2022-08-26T17:24:06.759Z,10.00
2022-08-26T17:26:33.402Z,9.70
2022-08-26T17:29:00.052Z,11.83
2022-08-26T17:31:26.936Z,15.40
2022-08-26T17:33:55.381Z,13.23
2022-08-26T17:36:28.139Z,10.60
2022-08-26T17:38:56.225Z,14.50
2022-08-26T17:41:22.719Z,13.50
2022-08-26T17:43:49.200Z,16.23
2022-08-26T17:46:15.731Z,15.13
2022-08-26T17:48:42.307Z,9.57
2022-08-26T17:51:15.076Z,12.80
2022-08-26T17:53:42.065Z,15.33
2022-08-26T17:56:12.122Z,10.80
2022-08-26T17:58:40.473Z,19.63
2022-08-26T18:01:07.430Z,13.27
2022-08-26T18:03:35.060Z,12.40
2022-08-26T18:06:02.249Z,14.73
2022-08-26T18:08:28.775Z,18.03
2022-08-26T18:10:55.269Z,13.80
2022-08-26T18:13:21.748Z,11.17
2022-08-26T18:15:48.276Z,9.70
2022-08-26T18:18:15.992Z,20.83
2022-08-26T18:20:44.876Z,15.90
2022-08-26T18:23:12.970Z,15.50
2022-08-26T18:25:43.640Z,11.07
2022-08-26T18:28:10.476Z,11.70
2022-08-26T18:30:37.538Z,14.23
2022-08-26T18:33:04.279Z,15.10
2022-08-26T18:35:30.760Z,12.40
2022-08-26T18:37:58.002Z,15.90
2022-08-26T18:40:27.991Z,10.10
2022-08-26T18:42:54.540Z,14.27
2022-08-26T18:45:21.078Z,12.57
2022-08-26T18:47:47.500Z,10.97
2022-08-26T18:50:14.289Z,12.20
2022-08-26T18:52:40.926Z,12.83
2022-08-26T18:55:07.993Z,13.60
2022-08-26T18:57:34.524Z,18.23
2022-08-26T19:00:02.265Z,11.90
2022-08-26T19:02:28.883Z,17.50
2022-08-26T19:04:57.168Z,13.27
2022-08-26T19:07:23.652Z,12.00
2022-08-26T19:09:53.806Z,16.93
2022-08-26T19:12:20.714Z,15.10
2022-08-26T19:14:47.214Z,15.13
2022-08-26T19:17:13.847Z,20.73
2022-08-26T19:19:40.381Z,15.13
2022-08-26T19:22:07.577Z,12.47
2022-08-26T19:24:34.414Z,15.03
2022-08-26T19:27:02.829Z,13.20
2022-08-26T19:29:34.179Z,11.10
2022-08-26T19:32:01.895Z,11.50
2022-08-26T19:34:29.485Z,14.97
2022-08-26T19:36:58.220Z,11.73
2022-08-26T19:39:26.426Z,12.40
2022-08-26T19:41:53.429Z,13.30
2022-08-26T19:44:40.450Z,14.20
2022-08-26T19:47:10.272Z,10.67
2022-08-26T19:49:37.419Z,14.03
2022-08-26T19:52:05.611Z,14.80
2022-08-26T19:54:32.144Z,13.23
2022-08-26T19:56:58.603Z,13.83
2022-08-26T19:59:25.111Z,13.33
2022-08-26T20:02:00.782Z,14.83
2022-08-26T20:04:28.763Z,13.83
2022-08-26T20:06:57.632Z,17.70
2022-08-26T20:09:25.320Z,11.23
2022-08-26T20:11:52.031Z,14.97
2022-08-26T20:14:23.265Z,11.63
2022-08-26T20:16:49.811Z,13.07
2022-08-26T20:19:37.533Z,12.30
2022-08-26T20:22:05.982Z,8.77
2022-08-26T20:24:33.289Z,11.53
2022-08-26T20:27:03.315Z,11.43
2022-08-26T20:29:32.952Z,10.07
2022-08-26T20:31:59.538Z,10.77
2022-08-26T20:34:26.335Z,11.50
2022-08-26T20:36:52.984Z,14.40
2022-08-26T20:39:23.312Z,14.07
2022-08-26T20:41:49.932Z,15.50
2022-08-26T20:44:17.573Z,22.13
2022-08-26T20:46:44.644Z,19.77
2022-08-26T20:49:11.250Z,14.10
2022-08-26T20:51:37.908Z,15.30
2022-08-26T20:54:06.508Z,13.50
2022-08-26T20:56:33.102Z,10.93
2022-08-26T20:59:01.102Z,13.30
2022-08-26T21:01:33.514Z,14.00
2022-08-26T21:04:02.795Z,14.23
2022-08-26T21:06:29.907Z,17.10
2022-08-26T21:08:57.074Z,13.60
2022-08-26T21:11:25.115Z,11.83
2022-08-26T21:14:15.892Z,14.60
2022-08-26T21:16:39.955Z,13.77
2022-08-26T21:19:10.093Z,11.30
2022-08-26T21:21:36.949Z,11.17
2022-08-26T21:24:03.783Z,10.20
2022-08-26T21:26:30.241Z,12.93
2022-08-26T21:28:56.739Z,10.93
2022-08-26T21:31:24.896Z,14.30
2022-08-26T21:33:51.745Z,11.73
2022-08-26T21:36:19.327Z,16.83
2022-08-26T21:38:45.888Z,17.07
2022-08-26T21:41:16.331Z,13.67
2022-08-26T21:43:42.925Z,16.87
2022-08-26T21:46:12.552Z,16.03
2022-08-26T21:48:40.237Z,12.60
2022-08-26T21:51:07.291Z,18.00
2022-08-26T21:53:35.155Z,12.13
2022-08-26T21:56:11.883Z,12.63
2022-08-26T21:58:39.414Z,11.33
2022-08-26T22:01:11.267Z,17.13
2022-08-26T22:03:47.560Z,12.90
2022-08-26T22:06:16.666Z,11.33
2022-08-26T22:08:43.595Z,13.03
2022-08-26T22:11:10.340Z,12.97
2022-08-26T22:13:39.844Z,13.97
2022-08-26T22:16:07.316Z,15.40
2022-08-26T22:18:34.658Z,14.30
2022-08-26T22:21:05.101Z,14.83
2022-08-26T22:23:31.950Z,12.10
2022-08-26T22:25:59.320Z,18.70
2022-08-26T22:28:25.977Z,13.60
2022-08-26T22:30:52.457Z,15.47
2022-08-26T22:33:19.202Z,17.07
2022-08-26T22:35:48.639Z,14.50
2022-08-26T22:38:15.641Z,16.80
2022-08-26T22:40:49.403Z,13.57
2022-08-26T22:43:17.967Z,16.13
2022-08-26T22:45:47.990Z,16.70
2022-08-26T22:48:17.471Z,14.30
2022-08-26T22:50:45.783Z,14.23
2022-08-26T22:53:13.308Z,14.00
2022-08-26T22:55:39.838Z,12.53
2022-08-26T22:58:07.135Z,12.30
2022-08-26T23:00:34.321Z,11.63
2022-08-26T23:03:02.805Z,10.10
2022-08-26T23:05:29.661Z,11.57
2022-08-26T23:07:56.724Z,12.57
2022-08-26T23:10:24.066Z,13.13
2022-08-26T23:12:52.317Z,13.30
2022-08-26T23:15:20.274Z,15.47
2022-08-26T23:17:47.676Z,10.80
2022-08-26T23:20:24.381Z,15.90
2022-08-26T23:22:50.871Z,13.00
2022-08-26T23:25:17.342Z,13.67
2022-08-26T23:27:44.324Z,14.30
2022-08-26T23:30:15.100Z,15.90
2022-08-26T23:32:41.736Z,17.07
2022-08-26T23:35:09.768Z,17.93
2022-08-26T23:37:43.599Z,19.43
2022-08-26T23:40:21.180Z,10.63
2022-08-26T23:42:47.933Z,13.75
2022-08-26T23:45:18.245Z,14.10
2022-08-26T23:47:45.415Z,16.70
2022-08-26T23:50:13.074Z,14.40
2022-08-26T23:53:14.879Z,15.83
2022-08-26T23:55:41.306Z,14.80
2022-08-26T23:58:07.768Z,15.80
